Time;durP1;ratioP1;P1;durP2;ratioP2;P2;SDS_P1;SDS_P2;PMS_P1;PMS_P2;Temp;Humidity;BMP_temperature;BMP_pressure;BME280_temperature;BME280_humidity;BME280_pressure;Samples;Min_cycle;Max_cycle;Signal;HPM_P1;HPM_P2
2023/01/07 00:00:40;;;;;;;25.07;19.57;;;13.10;99.90;;;;;;4591630;19;20011;-32
2023/01/07 00:02:21;;;;;;;23.65;20.63;;;13.10;99.90;;;;;;4592168;19;20014;-29
2023/01/07 00:03:53;;;;;;;24.10;19.83;;;13.10;99.90;;;;;;4592431;19;20006;-30
2023/01/07 00:05:24;;;;;;;24.33;19.75;;;13.10;99.90;;;;;;4590113;19;20010;-29
2023/01/07 00:06:55;;;;;;;23.50;20.42;;;13.10;99.90;;;;;;4590677;19;20066;-30
2023/01/07 00:08:31;;;;;;;25.80;22.92;;;13.10;99.90;;;;;;4592019;19;20074;-29
2023/01/07 00:10:02;;;;;;;27.20;21.73;;;13.10;99.90;;;;;;4590422;19;20014;-30
2023/01/07 00:11:35;;;;;;;22.90;18.30;;;13.10;99.90;;;;;;4591327;19;20017;-31
2023/01/07 00:13:06;;;;;;;22.40;16.73;;;13.00;99.90;;;;;;4590648;19;20078;-29
2023/01/07 00:14:40;;;;;;;22.50;17.00;;;13.00;99.90;;;;;;4590420;19;20051;-29
2023/01/07 00:16:13;;;;;;;22.90;17.10;;;13.00;99.90;;;;;;4590938;19;20464;-29
2023/01/07 00:17:45;;;;;;;26.00;18.77;;;13.10;99.90;;;;;;4590452;19;20539;-29
2023/01/07 00:19:16;;;;;;;27.58;19.45;;;13.00;99.90;;;;;;4591034;19;20182;-30
2023/01/07 00:20:47;;;;;;;35.95;24.20;;;13.10;99.90;;;;;;4592307;19;20018;-29
2023/01/07 00:22:18;;;;;;;38.67;24.17;;;13.00;99.90;;;;;;4590033;19;20380;-29
2023/01/07 00:23:53;;;;;;;29.50;20.00;;;13.10;99.90;;;;;;4591000;19;20010;-31
2023/01/07 00:25:24;;;;;;;22.67;16.00;;;13.00;99.90;;;;;;4591342;19;20035;-29
2023/01/07 00:26:55;;;;;;;18.42;14.40;;;13.00;99.90;;;;;;4591316;19;20086;-29
2023/01/07 00:28:26;;;;;;;22.02;16.05;;;13.00;99.90;;;;;;4588703;19;20011;-29
2023/01/07 00:29:58;;;;;;;21.70;16.13;;;13.00;99.90;;;;;;4588747;19;20031;-29
2023/01/07 00:31:31;;;;;;;21.67;17.02;;;13.00;99.90;;;;;;4588924;19;20502;-29
2023/01/07 00:33:05;;;;;;;21.70;16.47;;;13.00;99.90;;;;;;4588662;19;20018;-30
2023/01/07 00:34:37;;;;;;;20.00;16.17;;;13.00;99.90;;;;;;4588891;19;20753;-30
2023/01/07 00:36:09;;;;;;;19.07;16.23;;;13.00;99.90;;;;;;4589280;19;20015;-28
2023/01/07 00:37:49;;;;;;;20.63;16.08;;;13.00;99.90;;;;;;4589225;19;20010;-30
2023/01/07 00:39:20;;;;;;;21.57;16.90;;;13.00;99.90;;;;;;4589120;19;20014;-29
2023/01/07 00:40:52;;;;;;;20.02;16.50;;;13.00;99.90;;;;;;4588628;19;20125;-28
2023/01/07 00:44:12;;;;;;;17.43;14.27;;;13.00;99.90;;;;;;4588547;19;20125;-29
2023/01/07 00:45:44;;;;;;;16.88;13.10;;;13.00;99.90;;;;;;4588601;19;20467;-31
2023/01/07 00:47:15;;;;;;;20.05;14.18;;;13.00;99.90;;;;;;4587847;19;20021;-28
2023/01/07 00:48:46;;;;;;;19.05;14.02;;;13.00;99.90;;;;;;4588852;19;20015;-29
2023/01/07 00:50:21;;;;;;;15.38;12.40;;;13.00;99.90;;;;;;4588542;19;20364;-30
2023/01/07 00:51:53;;;;;;;16.33;12.30;;;13.00;99.90;;;;;;4588740;19;19994;-28
2023/01/07 00:53:24;;;;;;;13.32;11.20;;;13.00;99.90;;;;;;4588582;19;20017;-29
2023/01/07 00:54:57;;;;;;;16.20;12.27;;;13.00;99.90;;;;;;4588347;19;20082;-29
2023/01/07 00:56:28;;;;;;;14.60;12.07;;;13.00;99.90;;;;;;4588605;19;20022;-31
2023/01/07 00:58:00;;;;;;;13.88;12.35;;;13.00;99.90;;;;;;4588550;19;20375;-30
2023/01/07 00:59:31;;;;;;;19.52;13.23;;;13.00;99.90;;;;;;4588299;19;20472;-29
2023/01/07 01:01:02;;;;;;;17.13;12.30;;;13.00;99.90;;;;;;4589060;19;20497;-31
2023/01/07 01:02:33;;;;;;;15.57;12.25;;;13.00;99.90;;;;;;4590880;19;20018;-28
2023/01/07 01:04:07;;;;;;;15.47;11.73;;;13.00;99.90;;;;;;4590433;19;20031;-28
2023/01/07 01:05:38;;;;;;;16.40;12.97;;;13.00;99.90;;;;;;4589835;19;20066;-29
2023/01/07 01:07:09;;;;;;;18.02;13.93;;;13.00;99.90;;;;;;4590288;19;20468;-28
2023/01/07 01:08:42;;;;;;;17.27;14.27;;;13.00;99.90;;;;;;4591360;19;20006;-29
2023/01/07 01:10:15;;;;;;;17.93;13.80;;;13.00;99.90;;;;;;4589097;19;20025;-29
2023/01/07 01:11:46;;;;;;;15.67;13.80;;;13.00;99.90;;;;;;4590068;19;20078;-29
2023/01/07 01:13:17;;;;;;;18.13;13.85;;;13.00;99.90;;;;;;4589653;19;20036;-29
2023/01/07 01:14:48;;;;;;;16.35;13.25;;;13.00;99.90;;;;;;4589327;19;20082;-29
2023/01/07 01:16:19;;;;;;;15.75;11.98;;;13.00;99.90;;;;;;4589005;19;20017;-31
2023/01/07 01:17:51;;;;;;;17.42;13.68;;;13.00;99.90;;;;;;4590144;19;20011;-28
2023/01/07 01:19:22;;;;;;;15.73;12.80;;;13.00;99.90;;;;;;4590765;19;20011;-29
2023/01/07 01:20:53;;;;;;;17.42;12.68;;;13.00;99.90;;;;;;4589107;19;19999;-30
2023/01/07 01:22:25;;;;;;;15.05;12.38;;;13.00;99.90;;;;;;4589756;19;20019;-30
2023/01/07 01:23:56;;;;;;;15.57;12.48;;;13.00;99.90;;;;;;4590254;19;20015;-32
2023/01/07 01:25:27;;;;;;;17.50;13.65;;;12.90;99.90;;;;;;4590827;19;20009;-37
2023/01/07 01:26:58;;;;;;;19.85;14.63;;;13.00;99.90;;;;;;4589409;19;20074;-34
2023/01/07 01:28:30;;;;;;;17.52;12.90;;;13.00;99.90;;;;;;4590488;19;20062;-32
2023/01/07 01:30:01;;;;;;;16.67;13.00;;;13.00;99.90;;;;;;4590217;19;20014;-36
2023/01/07 01:31:33;;;;;;;16.45;13.38;;;13.00;99.90;;;;;;4589414;19;20014;-32
2023/01/07 01:33:04;;;;;;;18.10;13.27;;;13.00;99.90;;;;;;4588763;19;20116;-33
2023/01/07 01:34:35;;;;;;;16.60;11.95;;;13.00;99.90;;;;;;4589999;19;20018;-30
2023/01/07 01:36:09;;;;;;;15.00;11.73;;;13.00;99.90;;;;;;4590551;19;20041;-33
2023/01/07 01:37:40;;;;;;;14.90;12.20;;;12.90;99.90;;;;;;4589814;19;20521;-31
2023/01/07 01:39:11;;;;;;;14.20;11.73;;;12.90;99.90;;;;;;4588656;19;20514;-31
2023/01/07 01:40:42;;;;;;;16.35;11.85;;;12.90;99.90;;;;;;4589836;19;20015;-30
2023/01/07 01:42:19;;;;;;;18.25;13.38;;;12.90;99.90;;;;;;4590167;19;20006;-30
2023/01/07 01:43:51;;;;;;;16.10;11.77;;;13.00;99.90;;;;;;4588615;19;20507;-34
2023/01/07 01:45:22;;;;;;;14.32;11.00;;;13.00;99.90;;;;;;4588712;19;20011;-32
2023/01/07 01:46:53;;;;;;;13.43;11.07;;;13.00;99.90;;;;;;4588285;19;20475;-33
2023/01/07 01:48:24;;;;;;;13.63;10.57;;;13.00;99.90;;;;;;4589460;19;20006;-35
2023/01/07 01:50:06;;;;;;;11.40;9.65;;;13.00;99.90;;;;;;4589571;19;20033;-35
2023/01/07 01:51:38;;;;;;;13.82;10.48;;;13.00;99.90;;;;;;4588697;19;20011;-29
2023/01/07 01:53:19;;;;;;;13.43;11.27;;;13.00;99.90;;;;;;4589083;19;20023;-36
2023/01/07 01:54:54;;;;;;;17.30;11.30;;;13.00;99.90;;;;;;4588430;19;20018;-30
2023/01/07 01:56:28;;;;;;;14.23;10.90;;;13.00;99.90;;;;;;4588979;19;20093;-30
2023/01/07 01:58:02;;;;;;;14.43;11.53;;;13.00;99.90;;;;;;4587126;19;20011;-30
2023/01/07 01:59:35;;;;;;;13.20;11.10;;;13.00;99.90;;;;;;4587584;19;20025;-29
2023/01/07 02:01:06;;;;;;;15.83;11.40;;;13.00;99.90;;;;;;4587460;19;20008;-33
2023/01/07 02:02:46;;;;;;;12.80;10.63;;;13.00;99.90;;;;;;4587862;19;20045;-34
2023/01/07 02:04:19;;;;;;;12.60;10.33;;;13.00;99.90;;;;;;4587401;19;20021;-28
2023/01/07 02:05:50;;;;;;;13.70;10.83;;;13.00;99.90;;;;;;4586709;19;20018;-30
2023/01/07 02:07:21;;;;;;;14.45;11.05;;;13.00;99.90;;;;;;4586179;19;20011;-33
2023/01/07 02:08:52;;;;;;;18.25;13.90;;;13.00;99.90;;;;;;4587972;19;20100;-32
2023/01/07 02:10:24;;;;;;;16.70;12.65;;;13.00;99.90;;;;;;4587370;19;20011;-36
2023/01/07 02:11:57;;;;;;;14.82;11.93;;;13.00;99.90;;;;;;4587583;19;20031;-38
2023/01/07 02:13:50;;;;;;;17.27;12.93;;;12.90;99.90;;;;;;4587139;19;20038;-31
2023/01/07 02:15:47;;;;;;;16.23;12.10;;;13.00;99.90;;;;;;4587500;19;20021;-31
2023/01/07 02:17:36;;;;;;;14.37;11.47;;;13.00;99.90;;;;;;4587038;19;20019;-36
2023/01/07 02:19:45;;;;;;;15.37;11.43;;;13.00;99.90;;;;;;4586981;19;20480;-35
2023/01/07 02:21:41;;;;;;;18.80;13.80;;;13.00;99.90;;;;;;4587035;19;20017;-33
2023/01/07 02:23:18;;;;;;;21.87;16.57;;;12.90;99.90;;;;;;4586875;19;20082;-35
2023/01/07 02:25:02;;;;;;;21.10;16.30;;;12.90;99.90;;;;;;4587122;19;20011;-31
2023/01/07 02:26:52;;;;;;;21.87;15.23;;;13.00;99.90;;;;;;4591226;19;20086;-31
2023/01/07 02:28:39;;;;;;;18.83;13.53;;;12.90;99.90;;;;;;4591669;19;20022;-35
2023/01/07 02:30:20;;;;;;;16.47;13.53;;;12.90;99.90;;;;;;4591712;19;20007;-35
2023/01/07 02:32:09;;;;;;;18.53;13.40;;;12.90;99.90;;;;;;4591372;19;20109;-36
2023/01/07 02:34:03;;;;;;;21.27;15.97;;;12.90;99.90;;;;;;4589451;19;20026;-38
2023/01/07 02:36:01;;;;;;;19.13;14.73;;;12.90;99.90;;;;;;4591160;19;20035;-37
2023/01/07 02:37:43;;;;;;;18.90;14.10;;;12.90;99.90;;;;;;4591240;19;20038;-37
2023/01/07 02:39:36;;;;;;;20.63;13.88;;;12.90;99.90;;;;;;4591125;19;20018;-34
2023/01/07 02:41:34;;;;;;;22.07;14.17;;;12.90;99.90;;;;;;4590848;19;20018;-29
2023/01/07 02:43:18;;;;;;;15.93;13.30;;;12.90;99.90;;;;;;4591004;19;20110;-34
2023/01/07 02:44:55;;;;;;;17.27;13.20;;;12.90;99.90;;;;;;4591208;19;20456;-33
2023/01/07 02:46:29;;;;;;;16.23;12.87;;;12.90;99.90;;;;;;4590806;19;20010;-32
2023/01/07 02:48:06;;;;;;;14.27;12.43;;;12.90;99.90;;;;;;4591097;19;20022;-30
2023/01/07 02:49:37;;;;;;;16.37;12.43;;;12.90;99.90;;;;;;4590848;19;20021;-30
2023/01/07 02:51:08;;;;;;;17.92;13.27;;;12.90;99.90;;;;;;4591162;19;20010;-30
2023/01/07 02:52:39;;;;;;;14.55;12.10;;;12.90;99.90;;;;;;4591280;19;20007;-37
2023/01/07 02:54:17;;;;;;;16.55;12.20;;;12.90;99.90;;;;;;4590957;19;20349;-30
2023/01/07 02:55:57;;;;;;;15.50;12.20;;;12.90;99.90;;;;;;4591205;19;20511;-36
2023/01/07 02:57:44;;;;;;;17.00;12.37;;;12.90;99.90;;;;;;4591225;19;20066;-32
2023/01/07 02:59:21;;;;;;;16.30;11.90;;;12.90;99.90;;;;;;4591109;19;20032;-32
2023/01/07 03:01:15;;;;;;;14.30;11.03;;;12.90;99.90;;;;;;4590889;19;20010;-31
2023/01/07 03:03:20;;;;;;;15.30;11.43;;;12.90;99.90;;;;;;4590595;19;20813;-32
2023/01/07 03:04:59;;;;;;;15.00;11.17;;;12.90;99.90;;;;;;4590374;19;20495;-35
2023/01/07 03:06:42;;;;;;;15.00;11.53;;;12.90;99.90;;;;;;4590372;19;20483;-31
2023/01/07 03:08:28;;;;;;;16.27;11.60;;;12.90;99.90;;;;;;4590598;19;21043;-32
2023/01/07 03:10:10;;;;;;;17.27;12.57;;;12.90;99.90;;;;;;4590698;19;20011;-31
2023/01/07 03:11:46;;;;;;;19.33;13.43;;;12.90;99.90;;;;;;4591213;19;20003;-34
2023/01/07 03:13:23;;;;;;;22.00;14.83;;;12.90;99.90;;;;;;4590378;19;20038;-31
2023/01/07 03:15:01;;;;;;;19.53;15.07;;;12.90;99.90;;;;;;4590445;19;20389;-32
2023/01/07 03:16:53;;;;;;;20.57;15.10;;;12.90;99.90;;;;;;4591298;19;20006;-32
2023/01/07 03:18:26;;;;;;;18.85;16.00;;;12.90;99.90;;;;;;4592036;19;20019;-31
2023/01/07 03:19:58;;;;;;;21.30;16.30;;;12.90;99.90;;;;;;4591958;19;20015;-31
2023/01/07 03:21:30;;;;;;;19.80;16.33;;;12.90;99.90;;;;;;4591411;19;20014;-33
2023/01/07 03:23:03;;;;;;;24.30;18.57;;;12.90;99.90;;;;;;4591537;19;20013;-28
2023/01/07 03:24:34;;;;;;;22.43;16.70;;;12.90;99.90;;;;;;4591518;19;20019;-30
2023/01/07 03:26:05;;;;;;;22.98;17.38;;;12.90;99.90;;;;;;4591839;19;20015;-32
2023/01/07 03:27:37;;;;;;;19.17;15.95;;;12.90;99.90;;;;;;4590224;19;20022;-31
2023/01/07 03:29:09;;;;;;;19.50;15.35;;;12.90;99.90;;;;;;4591712;19;20021;-30
2023/01/07 03:30:40;;;;;;;20.13;16.27;;;12.90;99.90;;;;;;4591109;19;20018;-33
2023/01/07 03:32:16;;;;;;;20.67;16.45;;;12.90;99.90;;;;;;4591329;19;20022;-32
2023/01/07 03:34:05;;;;;;;19.47;15.23;;;12.90;99.90;;;;;;4591874;19;20015;-32
2023/01/07 03:35:36;;;;;;;18.20;15.90;;;12.90;99.90;;;;;;4591296;19;20433;-30
2023/01/07 03:37:19;;;;;;;18.33;15.13;;;12.90;99.90;;;;;;4591755;19;20031;-30
2023/01/07 03:38:50;;;;;;;17.67;14.77;;;12.90;99.90;;;;;;4591395;19;20014;-34
2023/01/07 03:40:21;;;;;;;16.70;14.15;;;12.90;99.90;;;;;;4590976;19;20436;-29
2023/01/07 03:43:43;;;;;;;17.10;13.93;;;12.90;99.90;;;;;;4591841;19;20018;-33
2023/01/07 03:45:16;;;;;;;16.10;13.70;;;12.90;99.90;;;;;;4592960;19;20011;-30
2023/01/07 03:46:47;;;;;;;16.03;13.40;;;12.90;99.90;;;;;;4591979;19;20343;-34
2023/01/07 03:48:19;;;;;;;16.77;13.98;;;12.90;99.90;;;;;;4590991;19;20113;-34
2023/01/07 03:49:50;;;;;;;16.98;14.02;;;12.90;99.90;;;;;;4591660;19;20514;-33
2023/01/07 03:51:21;;;;;;;17.08;14.68;;;12.90;99.90;;;;;;4592640;19;20074;-31
2023/01/07 03:52:52;;;;;;;18.08;14.73;;;12.90;99.90;;;;;;4592142;19;20078;-32
2023/01/07 03:54:23;;;;;;;16.08;13.07;;;12.90;99.90;;;;;;4591922;19;20356;-27
2023/01/07 03:55:55;;;;;;;15.70;12.82;;;12.90;99.90;;;;;;4591116;19;20094;-33
2023/01/07 03:57:28;;;;;;;17.50;14.77;;;12.90;99.90;;;;;;4591642;19;20050;-34
2023/01/07 03:58:59;;;;;;;17.93;14.47;;;12.90;99.90;;;;;;4591647;19;20033;-36
2023/01/07 04:00:31;;;;;;;16.00;12.43;;;12.90;99.90;;;;;;4592048;19;20524;-33
2023/01/07 04:02:02;;;;;;;;;;;12.90;99.90;;;;;;4592294;19;20010;-31
2023/01/07 04:03:33;;;;;;;18.10;13.90;;;12.90;99.90;;;;;;4592754;19;20234;-28
2023/01/07 04:05:05;;;;;;;16.50;14.10;;;12.90;99.90;;;;;;4591229;19;20022;-32
2023/01/07 04:06:36;;;;;;;16.10;13.43;;;12.90;99.90;;;;;;4591699;19;20011;-27
2023/01/07 04:08:07;;;;;;;16.20;13.90;;;12.90;99.90;;;;;;4592180;19;20062;-32
2023/01/07 04:09:38;;;;;;;17.63;13.98;;;12.90;99.90;;;;;;4591977;19;20343;-31
2023/01/07 04:11:10;;;;;;;18.23;13.75;;;12.90;99.90;;;;;;4591738;19;20010;-31
2023/01/07 04:12:41;;;;;;;19.15;14.35;;;12.90;99.90;;;;;;4591268;19;20007;-30
2023/01/07 04:14:12;;;;;;;18.67;13.95;;;12.90;99.90;;;;;;4592435;19;20031;-37
2023/01/07 04:15:43;;;;;;;19.27;14.73;;;12.90;99.90;;;;;;4592137;19;20043;-31
2023/01/07 04:17:14;;;;;;;19.85;15.18;;;12.90;99.90;;;;;;4591686;19;20014;-32
2023/01/07 04:18:46;;;;;;;18.80;14.60;;;12.90;99.90;;;;;;4591961;19;20073;-34
2023/01/07 04:20:17;;;;;;;22.48;15.05;;;12.90;99.90;;;;;;4592012;19;20065;-34
2023/01/07 04:21:48;;;;;;;20.85;15.65;;;12.90;99.90;;;;;;4591105;19;20354;-31
2023/01/07 04:23:20;;;;;;;36.65;27.55;;;12.90;99.90;;;;;;4590339;19;20091;-34
2023/01/07 04:24:51;;;;;;;35.53;28.73;;;12.90;99.90;;;;;;4591204;19;20002;-39
2023/01/07 04:26:22;;;;;;;48.97;39.67;;;12.90;99.90;;;;;;4591662;19;20015;-30
2023/01/07 04:27:53;;;;;;;54.58;44.72;;;12.90;99.90;;;;;;4590035;19;20041;-34
2023/01/07 04:29:24;;;;;;;67.65;52.55;;;12.90;99.90;;;;;;4591698;19;20337;-30
2023/01/07 04:30:58;;;;;;;66.38;54.45;;;12.90;99.90;;;;;;4591866;19;20093;-31
2023/01/07 04:32:29;;;;;;;70.87;55.10;;;12.90;99.90;;;;;;4590665;19;20013;-34
2023/01/07 04:34:00;;;;;;;66.32;52.80;;;12.90;99.90;;;;;;4591093;19;20007;-30
2023/01/07 04:35:32;;;;;;;64.20;49.92;;;12.90;99.90;;;;;;4591258;19;20479;-34
2023/01/07 04:37:03;;;;;;;64.40;49.37;;;12.90;99.90;;;;;;4591482;19;20081;-33
2023/01/07 04:38:34;;;;;;;60.70;50.28;;;12.90;99.90;;;;;;4590907;19;20051;-33
2023/01/07 04:40:06;;;;;;;59.72;46.60;;;12.90;99.90;;;;;;4590973;19;20364;-29
2023/01/07 04:41:38;;;;;;;52.80;41.83;;;12.90;99.90;;;;;;4591027;19;20467;-31
2023/01/07 04:43:09;;;;;;;49.42;39.92;;;12.90;99.90;;;;;;4591261;19;20010;-33
2023/01/07 04:44:40;;;;;;;51.35;41.80;;;12.90;99.90;;;;;;4589653;19;20411;-36
2023/01/07 04:46:11;;;;;;;50.10;40.75;;;12.90;99.90;;;;;;4590641;19;20091;-31
2023/01/07 04:47:42;;;;;;;50.20;41.03;;;12.90;99.90;;;;;;4587770;19;20445;-33
2023/01/07 04:49:13;;;;;;;50.28;41.72;;;12.90;99.90;;;;;;4591295;19;20494;-31
2023/01/07 04:50:46;;;;;;;54.40;41.42;;;12.90;99.90;;;;;;4591049;19;20399;-29
2023/01/07 04:52:17;;;;;;;50.70;40.20;;;12.90;99.90;;;;;;4590830;19;20010;-34
2023/01/07 04:53:48;;;;;;;51.20;41.65;;;12.90;99.90;;;;;;4591234;19;20013;-40
2023/01/07 04:55:20;;;;;;;51.42;41.88;;;12.90;99.90;;;;;;4590544;19;20014;-29
2023/01/07 04:56:51;;;;;;;50.33;39.95;;;12.90;99.90;;;;;;4590942;19;20066;-30
2023/01/07 04:58:22;;;;;;;49.83;39.90;;;12.90;99.90;;;;;;4590700;19;20006;-33
2023/01/07 04:59:53;;;;;;;47.67;38.65;;;12.90;99.90;;;;;;4591294;19;20019;-29
2023/01/07 05:01:24;;;;;;;47.47;38.45;;;12.90;99.90;;;;;;4589435;19;20047;-28
2023/01/07 05:02:55;;;;;;;48.78;39.35;;;12.90;99.90;;;;;;4590147;19;20010;-35
2023/01/07 05:04:27;;;;;;;44.55;37.60;;;12.90;99.90;;;;;;4591091;19;20010;-34
2023/01/07 05:05:58;;;;;;;41.42;34.28;;;12.90;99.90;;;;;;4589614;19;20022;-31
2023/01/07 05:07:32;;;;;;;43.77;36.23;;;12.90;99.90;;;;;;4589553;19;20074;-31
2023/01/07 05:09:03;;;;;;;38.78;31.25;;;12.80;99.90;;;;;;4590848;19;20043;-28
2023/01/07 05:10:35;;;;;;;40.05;31.35;;;12.90;99.90;;;;;;4590947;19;20070;-36
2023/01/07 05:12:06;;;;;;;37.40;30.50;;;12.80;99.90;;;;;;4591318;19;20007;-30
2023/01/07 05:13:37;;;;;;;37.42;32.17;;;12.80;99.90;;;;;;4590855;19;20041;-33
2023/01/07 05:15:09;;;;;;;35.97;28.98;;;12.80;99.90;;;;;;4590460;19;20010;-33
2023/01/07 05:16:40;;;;;;;35.35;26.42;;;12.80;99.90;;;;;;4590542;19;20099;-37
2023/01/07 05:18:11;;;;;;;29.70;22.50;;;12.80;99.90;;;;;;4590164;19;20404;-35
2023/01/07 05:19:42;;;;;;;33.40;23.13;;;12.90;99.90;;;;;;4590109;19;20344;-29
2023/01/07 05:21:13;;;;;;;30.35;22.15;;;12.80;99.90;;;;;;4590957;19;20010;-33
2023/01/07 05:22:45;;;;;;;26.80;20.88;;;12.80;99.90;;;;;;4590853;19;20007;-34
2023/01/07 05:24:16;;;;;;;30.30;22.20;;;12.90;99.90;;;;;;4590140;19;20031;-29
2023/01/07 05:25:47;;;;;;;31.85;22.13;;;12.80;99.90;;;;;;4589862;19;20049;-28
2023/01/07 05:27:19;;;;;;;29.85;20.85;;;12.80;99.90;;;;;;4590501;19;20089;-33
2023/01/07 05:28:50;;;;;;;28.70;21.77;;;12.80;99.90;;;;;;4588885;19;20010;-33
2023/01/07 05:30:21;;;;;;;54.83;48.85;;;12.80;99.90;;;;;;4589390;19;20330;-34
2023/01/07 05:31:53;;;;;;;60.15;53.55;;;12.80;99.90;;;;;;4589372;19;20556;-33
2023/01/07 05:33:24;;;;;;;33.60;26.38;;;12.80;99.90;;;;;;4588363;19;20011;-33
2023/01/07 05:34:55;;;;;;;31.33;21.92;;;12.80;99.90;;;;;;4588509;19;20027;-39
2023/01/07 05:36:26;;;;;;;27.45;21.45;;;12.80;99.90;;;;;;4588285;19;20018;-34
2023/01/07 05:37:58;;;;;;;27.98;20.42;;;12.80;99.90;;;;;;4588556;19;20043;-36
2023/01/07 05:39:29;;;;;;;;;;;12.80;99.90;;;;;;4590975;19;20011;-35
2023/01/07 05:41:00;;;;;;;30.87;22.83;;;12.80;99.90;;;;;;4590208;19;20247;-35
2023/01/07 05:42:32;;;;;;;31.55;24.48;;;12.80;99.90;;;;;;4589534;19;20802;-33
2023/01/07 05:44:03;;;;;;;29.95;26.00;;;12.80;99.90;;;;;;4590011;19;20006;-31
2023/01/07 05:45:34;;;;;;;30.58;25.13;;;12.80;99.90;;;;;;4589752;19;20033;-36
2023/01/07 05:47:05;;;;;;;32.53;25.88;;;12.80;99.90;;;;;;4588371;19;20409;-37
2023/01/07 05:48:37;;;;;;;30.33;24.17;;;12.80;99.90;;;;;;4588509;19;20355;-31
2023/01/07 05:50:08;;;;;;;28.77;22.92;;;12.80;99.90;;;;;;4588357;19;20014;-31
2023/01/07 05:51:39;;;;;;;26.95;21.17;;;12.80;99.90;;;;;;4587874;19;20025;-32
2023/01/07 05:53:11;;;;;;;30.55;20.75;;;12.80;99.90;;;;;;4588302;19;20010;-33
2023/01/07 05:54:42;;;;;;;28.67;21.08;;;12.80;99.90;;;;;;4589431;19;20014;-31
2023/01/07 05:56:13;;;;;;;29.05;21.80;;;12.80;99.90;;;;;;4590057;19;20359;-34
2023/01/07 05:57:44;;;;;;;26.20;20.67;;;12.80;99.90;;;;;;4588297;19;20019;-29
2023/01/07 05:59:16;;;;;;;27.13;20.75;;;12.80;99.90;;;;;;4590513;19;20066;-31
2023/01/07 06:00:47;;;;;;;25.65;20.60;;;12.80;99.90;;;;;;4593480;19;20025;-32
2023/01/07 06:02:18;;;;;;;26.40;19.88;;;12.80;99.90;;;;;;4592175;19;20523;-37
2023/01/07 06:03:49;;;;;;;27.08;20.08;;;12.80;99.90;;;;;;4591622;19;20038;-31
2023/01/07 06:05:21;;;;;;;24.80;19.77;;;12.90;99.90;;;;;;4591372;19;20015;-31
2023/01/07 06:06:52;;;;;;;25.48;21.00;;;12.80;99.90;;;;;;4592191;19;20037;-30
2023/01/07 06:08:24;;;;;;;30.33;23.20;;;12.90;99.90;;;;;;4595209;19;20029;-32
2023/01/07 06:09:55;;;;;;;27.58;21.80;;;12.80;99.90;;;;;;4594756;19;20014;-32
2023/01/07 06:11:26;;;;;;;30.17;22.88;;;12.90;99.90;;;;;;4593971;19;20025;-33
2023/01/07 06:12:57;;;;;;;24.80;21.23;;;12.90;99.90;;;;;;4592628;19;20032;-29
2023/01/07 06:14:28;;;;;;;21.15;18.52;;;12.90;99.90;;;;;;4594078;19;20066;-30
2023/01/07 06:16:00;;;;;;;19.48;17.38;;;12.90;99.90;;;;;;4594255;19;20011;-29
2023/01/07 06:17:32;;;;;;;22.17;16.53;;;12.90;99.90;;;;;;4594115;19;20014;-29
2023/01/07 06:19:03;;;;;;;18.10;14.63;;;12.80;99.90;;;;;;4595001;19;20006;-29
2023/01/07 06:20:35;;;;;;;18.02;14.25;;;12.90;99.90;;;;;;4594386;19;20014;-29
2023/01/07 06:22:06;;;;;;;;;;;12.80;99.90;;;;;;4594693;19;20031;-28
2023/01/07 06:23:37;;;;;;;18.10;13.17;;;12.80;99.90;;;;;;4593633;19;19919;-29
2023/01/07 06:25:10;;;;;;;13.98;12.27;;;12.90;99.90;;;;;;4593131;19;20499;-28
2023/01/07 06:26:41;;;;;;;17.73;13.53;;;12.80;99.90;;;;;;4592804;19;20014;-28
2023/01/07 06:28:12;;;;;;;19.02;13.68;;;12.90;99.90;;;;;;4593695;19;20002;-31
2023/01/07 06:29:43;;;;;;;21.30;14.10;;;12.90;99.90;;;;;;4594055;19;20015;-30
2023/01/07 06:31:15;;;;;;;20.55;13.40;;;12.90;99.90;;;;;;4591252;19;20533;-28
2023/01/07 06:32:46;;;;;;;19.25;13.95;;;12.90;99.90;;;;;;4592037;19;20025;-30
2023/01/07 06:34:17;;;;;;;16.73;12.85;;;13.00;99.90;;;;;;4594113;19;20472;-29
2023/01/07 06:35:49;;;;;;;15.82;12.55;;;13.10;99.90;;;;;;4593723;19;20014;-29
2023/01/07 06:37:20;;;;;;;17.27;14.05;;;13.10;99.90;;;;;;4593511;19;20034;-29
2023/01/07 06:38:51;;;;;;;15.15;12.88;;;13.20;99.90;;;;;;4592877;19;20501;-30
2023/01/07 06:40:22;;;;;;;14.68;13.05;;;13.20;99.90;;;;;;4592500;19;20018;-31
2023/01/07 06:41:53;;;;;;;16.10;12.25;;;13.20;99.90;;;;;;4592913;19;20020;-29
2023/01/07 06:43:25;;;;;;;14.35;11.98;;;13.30;99.90;;;;;;4593964;19;20362;-28
2023/01/07 06:44:56;;;;;;;15.15;12.38;;;13.20;99.90;;;;;;4593591;19;20014;-29
2023/01/07 06:46:27;;;;;;;17.83;14.13;;;13.30;99.90;;;;;;4593715;19;20066;-27
2023/01/07 06:47:58;;;;;;;16.65;12.95;;;13.30;99.90;;;;;;4592690;19;20643;-29
2023/01/07 06:49:30;;;;;;;17.35;13.95;;;13.30;99.90;;;;;;4593449;19;20401;-29
2023/01/07 06:51:01;;;;;;;14.45;11.55;;;13.20;99.90;;;;;;4593441;19;20010;-29
2023/01/07 06:52:32;;;;;;;13.75;11.65;;;13.30;99.90;;;;;;4592832;19;20006;-29
2023/01/07 06:54:03;;;;;;;12.57;10.50;;;13.30;99.90;;;;;;4592566;19;20018;-28
2023/01/07 06:55:35;;;;;;;11.07;9.40;;;13.30;99.90;;;;;;4593381;19;20011;-28
2023/01/07 06:57:06;;;;;;;11.57;10.07;;;13.30;99.90;;;;;;4591218;19;20010;-29
2023/01/07 06:58:37;;;;;;;11.20;9.35;;;13.20;99.90;;;;;;4591626;19;20610;-31
2023/01/07 07:00:09;;;;;;;10.57;9.48;;;13.20;99.90;;;;;;4592034;19;20357;-29
2023/01/07 07:01:40;;;;;;;12.88;11.55;;;11.80;99.90;;;;;;4589893;19;20018;-29
2023/01/07 07:03:11;;;;;;;12.23;11.02;;;10.70;99.90;;;;;;4592628;19;20021;-29
2023/01/07 07:04:42;;;;;;;13.48;12.07;;;10.20;99.90;;;;;;4593522;19;20014;-29
2023/01/07 07:06:14;;;;;;;12.52;11.32;;;10.00;99.90;;;;;;4590476;19;20098;-31
2023/01/07 07:07:45;;;;;;;14.38;12.88;;;9.80;99.90;;;;;;4591973;19;20028;-29
2023/01/07 07:09:16;;;;;;;16.58;13.98;;;9.80;99.90;;;;;;4593449;19;20018;-29
2023/01/07 07:10:48;;;;;;;14.32;12.75;;;9.80;99.90;;;;;;4590269;19;20038;-29
2023/01/07 07:12:19;;;;;;;18.17;14.63;;;9.80;99.90;;;;;;4592713;19;20073;-31
2023/01/07 07:13:50;;;;;;;17.02;14.60;;;9.80;99.90;;;;;;4592356;19;20020;-29
2023/01/07 07:15:21;;;;;;;18.65;16.40;;;9.80;99.90;;;;;;4592997;19;20018;-31
2023/01/07 07:16:53;;;;;;;18.90;15.85;;;9.80;99.90;;;;;;4591520;19;20499;-35
2023/01/07 07:18:25;;;;;;;18.65;15.38;;;9.90;99.90;;;;;;4591548;19;20016;-30
2023/01/07 07:19:57;;;;;;;18.27;14.90;;;9.90;99.90;;;;;;4591775;19;20476;-31
2023/01/07 07:21:28;;;;;;;;;;;9.80;99.90;;;;;;4591271;19;20856;-31
2023/01/07 07:23:00;;;;;;;22.33;17.20;;;9.70;99.90;;;;;;4590687;19;19918;-34
2023/01/07 07:24:31;;;;;;;;;;;9.70;99.90;;;;;;4590704;19;20015;-33
2023/01/07 07:26:02;;;;;;;22.10;17.00;;;9.70;99.90;;;;;;4590420;19;19978;-33
2023/01/07 07:27:33;;;;;;;23.75;18.95;;;9.70;99.90;;;;;;4593767;19;20521;-31
2023/01/07 07:29:05;;;;;;;26.27;20.45;;;9.70;99.90;;;;;;4592695;19;20015;-35
2023/01/07 07:30:36;;;;;;;23.48;18.90;;;9.70;99.90;;;;;;4592954;19;20011;-32
2023/01/07 07:32:08;;;;;;;20.73;17.08;;;9.70;99.90;;;;;;4592988;19;20002;-29
2023/01/07 07:33:39;;;;;;;18.93;15.77;;;9.70;99.90;;;;;;4590635;19;20029;-30
2023/01/07 07:35:11;;;;;;;18.92;14.57;;;9.70;99.90;;;;;;4592193;19;20818;-30
2023/01/07 07:36:42;;;;;;;15.43;12.98;;;9.70;99.90;;;;;;4592479;19;19999;-29
2023/01/07 07:38:15;;;;;;;16.13;12.98;;;9.70;99.90;;;;;;4592525;19;20352;-37
2023/01/07 07:39:46;;;;;;;13.70;11.87;;;9.70;99.90;;;;;;4591978;19;20471;-27
2023/01/07 07:41:17;;;;;;;15.50;12.52;;;9.70;99.90;;;;;;4592153;19;20433;-35
2023/01/07 07:42:48;;;;;;;13.55;10.85;;;9.70;99.90;;;;;;4592577;19;20003;-33
2023/01/07 07:44:20;;;;;;;14.45;12.07;;;9.70;99.90;;;;;;4592829;19;20031;-33
2023/01/07 07:45:51;;;;;;;15.02;11.95;;;9.70;99.90;;;;;;4592158;19;20028;-32
2023/01/07 07:47:22;;;;;;;15.55;13.05;;;9.70;99.90;;;;;;4591776;19;20078;-29
2023/01/07 07:48:55;;;;;;;13.80;11.38;;;9.70;99.90;;;;;;4591625;19;20122;-33
2023/01/07 07:50:26;;;;;;;13.17;10.83;;;9.80;99.90;;;;;;4591875;19;20010;-33
2023/01/07 07:51:57;;;;;;;13.40;11.88;;;9.80;99.90;;;;;;4591446;19;21138;-30
2023/01/07 07:53:28;;;;;;;13.00;10.38;;;9.70;99.90;;;;;;4592333;19;20015;-29
2023/01/07 07:55:00;;;;;;;12.48;10.65;;;9.70;99.90;;;;;;4592303;19;20015;-31
2023/01/07 07:56:31;;;;;;;13.68;11.02;;;9.70;99.90;;;;;;4591615;19;20411;-32
2023/01/07 07:58:02;;;;;;;12.70;10.73;;;9.70;99.90;;;;;;4591834;19;20014;-30
2023/01/07 07:59:33;;;;;;;11.43;10.13;;;9.70;99.90;;;;;;4590506;19;20010;-34